Bei Facebook empfehlenBei Twitter postenGoogle plusPinterest

Das Wetter im Erzgebirge am 05.02.2017

Wetter und Klima am 05.02.2017 Holzhau im Erzgebirge (630m ü.NN)
Letzte gemessene Temperatur und Uhrzeit der Messung23:45:00 Uhr0.30 °C
Temperatur (Maximum / Höchstwert) und Uhrzeit der Messung14:15:00 Uhr4.40 °C
Temperatur (Minimum / Tiefstwert) und Uhrzeit der Messung04:00:00-0.50 °C
Errechneter Absolutwert der Temperaturschwankungen zwischen Tmin und Tmax des Tages4.90 K
Errechnete Tagesmitteltemperatur1.41146 °C
Gesamt - Niederschlag des Tages (in flüssiger Form)0.00 Liter / m²
Luftdruck (Maximum / Höchstwert) und Zeitpunkt der Messung23:45:00 Uhr1003.50 hPa
Luftdruck (Minimum / Tiefstwert) und Zeitpunkt der Messung04:00:00 Uhr998.90 hPa
Errechneter Absolutwert der Luftdruckschwankungen des Tages4.60 hPa
Höchste gemessene Windgeschwindigkeit und Uhrzeit der Messung01:00:00 Uhr10.44 km/h
Errechnete Windhäufigkeit in Relation zu den Messwerten des Tages12.50000 %
Niedrigste Windkühle (Windchill) und Zeitpunkt der Messung01:00:00 Uhr-2.30 °C
Taupunkt (Maximum / Höchstwert) und Uhrzeit der Messung11:00:00 Uhr1.00 °C
Taupunkt (Minimum / Tiefstwert) und Uhrzeit der Messung04:00:00-1.80 °C
Anzahl der automatisch eingelesenen Messwerte 96

Detaillierte Wetter- und Klima- Messwerte für den 05.02.2017 in Holzhau im Erzgebirge (630m ü.NN)
ZeitTemperaturLuftdruckRel. LuftfeuchteWindWindrichtungWindchillTaupunktNiederschlag l/m²
23:45:000.30 °C1003.50 hPa91.00 %-1.00 °C 
23:30:000.20 °C1003.40 hPa91.00 %-1.10 °C 
23:15:000.20 °C1003.20 hPa91.00 %-1.10 °C 
23:00:000.20 °C1003.20 hPa91.00 %-1.10 °C 
22:45:000.20 °C1003.20 hPa90.00 %-1.20 °C 
22:30:000.20 °C1003.10 hPa91.00 %-1.10 °C 
22:15:000.20 °C1002.90 hPa91.00 %-1.10 °C 
22:00:000.20 °C1002.70 hPa90.00 %-1.20 °C 
21:45:000.30 °C1002.70 hPa90.00 %-1.10 °C 
21:30:000.30 °C1002.70 hPa90.00 %-1.10 °C 
21:15:000.30 °C1002.70 hPa90.00 %-1.10 °C 
21:00:000.30 °C1002.50 hPa89.00 %-1.30 °C 
20:45:000.30 °C1002.80 hPa89.00 %-1.30 °C 
20:30:000.30 °C1002.50 hPa89.00 %-1.30 °C 
20:15:000.40 °C1002.60 hPa89.00 %-1.20 °C 
20:00:000.40 °C1002.40 hPa89.00 %-1.20 °C 
19:45:000.50 °C1002.50 hPa89.00 %-1.10 °C 
19:30:000.60 °C1002.30 hPa89.00 %-1.00 °C 
19:15:000.60 °C1002.20 hPa89.00 %-1.00 °C 
19:00:000.60 °C1002.00 hPa87.00 %-1.30 °C 
18:45:000.80 °C1001.80 hPa88.00 %-1.00 °C 
18:30:000.80 °C1001.70 hPa88.00 %-1.00 °C 
18:15:000.80 °C1001.60 hPa87.00 %-1.10 °C 
18:00:000.90 °C1001.50 hPa87.00 %-1.00 °C 
17:45:001.00 °C1001.40 hPa86.00 %-1.10 °C 
17:30:001.20 °C1001.40 hPa85.00 %-1.00 °C 
17:15:001.40 °C1001.20 hPa83.00 %-1.20 °C 
17:00:001.80 °C1001.20 hPa83.00 %-0.80 °C 
16:45:002.10 °C1001.10 hPa82.00 %-0.60 °C 
16:30:002.40 °C1001.20 hPa81.00 %-0.50 °C 
16:15:002.90 °C1001.30 hPa78.00 %-0.50 °C 
16:00:003.30 °C1001.30 hPa77.00 %-0.30 °C 
15:45:003.50 °C1001.00 hPa77.00 %-0.10 °C 
15:30:003.60 °C1000.90 hPa76.00 %-0.20 °C 
15:15:003.50 °C1000.70 hPa77.00 %-0.10 °C 
15:00:003.60 °C1000.60 hPa77.00 %0.00 °C 
14:45:003.80 °C1000.70 hPa76.00 %0.00 °C 
14:30:004.10 °C1000.80 hPa76.00 %0.30 °C 
14:15:004.40 °C1000.60 hPa76.00 %0.60 °C 
14:00:004.40 °C1000.70 hPa77.00 %0.70 °C 
13:45:004.20 °C1000.70 hPa78.00 %0.70 °C 
13:30:004.10 °C1000.60 hPa79.00 %0.80 °C 
13:15:003.40 °C1000.70 hPa82.00 %5.40 km/hSSW2.10 °C0.60 °C 
13:00:003.30 °C1000.80 hPa81.00 %0.40 °C 
12:45:002.90 °C1001.00 hPa83.00 %0.30 °C 
12:30:003.00 °C1001.00 hPa83.00 %0.40 °C 
12:15:003.20 °C1000.80 hPa84.00 %6.48 km/hSSW1.50 °C0.80 °C 
12:00:002.70 °C1000.70 hPa87.00 %0.80 °C 
11:45:002.50 °C1000.60 hPa87.00 %0.60 °C 
11:30:002.60 °C1000.80 hPa87.00 %9.72 km/hWNW-0.10 °C0.70 °C 
11:15:002.70 °C1000.70 hPa87.00 %2.16 km/hW2.70 °C0.80 °C 
11:00:002.80 °C1000.50 hPa88.00 %1.00 °C 
10:45:002.50 °C1000.30 hPa88.00 %0.70 °C 
10:30:002.50 °C1000.20 hPa88.00 %0.70 °C 
10:15:002.60 °C999.80 hPa89.00 %6.84 km/hW0.70 °C1.00 °C 
10:00:002.50 °C999.70 hPa89.00 %0.90 °C 
09:45:002.30 °C999.80 hPa90.00 %1.44 km/hSSW2.30 °C0.80 °C 
09:30:002.10 °C999.60 hPa91.00 %0.80 °C 
09:15:002.00 °C999.50 hPa92.00 %0.80 °C 
09:00:001.90 °C999.50 hPa92.00 %0.70 °C 
08:45:001.80 °C999.50 hPa92.00 %0.60 °C 
08:30:001.80 °C999.50 hPa92.00 %0.60 °C 
08:15:001.60 °C999.60 hPa92.00 %0.40 °C 
08:00:001.60 °C999.60 hPa92.00 %1.80 km/hWNW1.60 °C0.40 °C 
07:45:001.60 °C999.20 hPa93.00 %0.60 °C 
07:30:001.60 °C999.40 hPa93.00 %0.60 °C 
07:15:001.60 °C999.40 hPa93.00 %6.84 km/hSW-0.50 °C0.60 °C 
07:00:001.30 °C999.50 hPa94.00 %0.40 °C 
06:45:000.70 °C999.20 hPa94.00 %-0.20 °C 
06:30:000.40 °C999.10 hPa93.00 %-0.60 °C 
06:15:000.30 °C999.00 hPa93.00 %-0.70 °C 
06:00:000.20 °C999.10 hPa93.00 %-0.80 °C 
05:45:000.10 °C999.30 hPa93.00 %-0.90 °C 
05:30:00-0.10 °C999.20 hPa93.00 %-1.20 °C 
05:15:00-0.20 °C999.10 hPa93.00 %-1.30 °C 
05:00:00-0.20 °C999.10 hPa93.00 %-1.30 °C 
04:45:00-0.20 °C999.00 hPa92.00 %-1.50 °C 
04:30:00-0.20 °C999.00 hPa92.00 %-1.50 °C 
04:15:00-0.40 °C999.00 hPa92.00 %-1.70 °C 
04:00:00-0.50 °C998.90 hPa92.00 %-1.80 °C 
03:45:00-0.50 °C998.90 hPa92.00 %-1.80 °C 
03:30:00-0.20 °C999.10 hPa91.00 %-1.60 °C 
03:15:000.10 °C999.00 hPa91.00 %-1.20 °C 
03:00:000.40 °C999.00 hPa92.00 %-0.70 °C 
02:45:000.40 °C999.10 hPa92.00 %-0.70 °C 
02:30:000.30 °C999.00 hPa91.00 %-1.00 °C 
02:15:000.70 °C999.10 hPa91.00 %-0.60 °C 
02:00:001.10 °C999.00 hPa91.00 %-0.20 °C 
01:45:001.10 °C999.10 hPa91.00 %-0.20 °C 
01:30:001.10 °C998.90 hPa92.00 %-0.10 °C 
01:15:001.00 °C998.90 hPa92.00 %2.16 km/hSSO1.00 °C-0.10 °C 
01:00:000.90 °C999.00 hPa92.00 %10.44 km/hSW-2.30 °C-0.20 °C 
00:45:000.90 °C999.20 hPa92.00 %1.80 km/hOSO0.90 °C-0.20 °C 
00:30:000.90 °C999.20 hPa92.00 %1.44 km/hO0.90 °C-0.20 °C 
00:15:000.90 °C999.10 hPa92.00 %-0.20 °C 
00:00:000.90 °C999.50 hPa92.00 %-0.20 °C 

Permanenter Link zu dieser Seite: Wetter im Erzgebirge am 05.02.2017
Performance-Info: Die Erstellung der Seite / Statistik(en) / Tabelle(n) erforderte 5 Datenbankserver-Abfrage(n) und dauerte 101 Millisekunden. (Dieser Messwert ist von der Gesamt-Auslastung des Servers abhängig.)
Erzgebirge - Wetter | Erzgebirge - Wetter (Mobilgeräte) | Komplette Klimadatenbank